Time;durP1;ratioP1;P1;durP2;ratioP2;P2;SDS_P1;SDS_P2;PMS_P1;PMS_P2;Temp;Humidity;BMP_temperature;BMP_pressure;BME280_temperature;BME280_humidity;BME280_pressure;Samples;Min_cycle;Max_cycle;Signal;HPM_P1;HPM_P2
2022/12/15 00:41:00;;;;;;;16.23;7.10;;;-1.50;99.90;;;;;;5075958;28;20538;-76
2022/12/15 00:43:28;;;;;;;21.48;8.25;;;-1.50;99.90;;;;;;5076451;28;20040;-75
2022/12/15 00:48:39;;;;;;;26.10;10.95;;;-1.40;99.90;;;;;;5075848;28;20045;-75
2022/12/15 00:51:04;;;;;;;19.80;8.30;;;-1.50;99.90;;;;;;5075732;28;20492;-75
2022/12/15 01:21:00;;;;;;;6.82;3.10;;;-1.60;99.90;;;;;;5057886;28;20052;-75
2022/12/15 01:23:26;;;;;;;12.40;3.60;;;-1.60;99.90;;;;;;5057787;28;20048;-75
2022/12/15 01:25:53;;;;;;;7.82;3.15;;;-1.60;99.90;;;;;;5057306;28;20132;-75
2022/12/15 01:28:20;;;;;;;7.50;2.85;;;-1.60;99.90;;;;;;5075180;28;20048;-75
2022/12/15 01:30:47;;;;;;;7.30;2.97;;;-1.60;99.90;;;;;;5075112;28;20099;-75
2022/12/15 01:33:14;;;;;;;5.97;2.40;;;-1.60;99.90;;;;;;5056952;28;20079;-75
2022/12/15 01:35:40;;;;;;;7.43;2.72;;;-1.50;99.90;;;;;;5074991;28;20099;-75
2022/12/15 01:38:06;;;;;;;10.17;2.90;;;-1.60;99.90;;;;;;5074933;28;20084;-75
2022/12/15 01:40:44;;;;;;;10.20;3.10;;;-1.60;99.90;;;;;;5074796;28;20511;-75
2022/12/15 01:43:25;;;;;;;6.82;3.28;;;-1.60;99.90;;;;;;5057037;28;20040;-75
2022/12/15 01:46:01;;;;;;;8.40;2.63;;;-1.60;99.90;;;;;;5074968;28;20423;-75
2022/12/15 01:48:35;;;;;;;6.65;2.95;;;-1.60;99.90;;;;;;5056995;28;20082;-75
2022/12/15 01:51:19;;;;;;;13.60;2.78;;;-1.60;99.90;;;;;;5074821;28;20123;-75
2022/12/15 01:53:57;;;;;;;9.18;2.40;;;-1.50;99.90;;;;;;5074873;28;20484;-75
2022/12/15 01:56:26;;;;;;;6.22;2.40;;;-1.60;99.90;;;;;;5074542;28;20047;-75
2022/12/15 01:58:55;;;;;;;4.90;2.42;;;-1.60;99.90;;;;;;5074464;28;20048;-75
2022/12/15 02:01:21;;;;;;;8.93;2.72;;;-1.50;99.90;;;;;;5074479;28;20044;-75
2022/12/15 02:03:47;;;;;;;10.07;2.35;;;-1.60;99.90;;;;;;5057058;28;20044;-75
2022/12/15 02:06:14;;;;;;;9.33;2.83;;;-1.50;99.90;;;;;;5074257;28;20082;-75
2022/12/15 02:08:44;;;;;;;7.88;2.45;;;-1.50;99.90;;;;;;5074289;28;20678;-75
2022/12/15 02:11:10;;;;;;;10.38;3.22;;;-1.50;99.90;;;;;;5074253;28;20053;-75
2022/12/15 02:13:58;;;;;;;7.20;2.30;;;-1.50;99.90;;;;;;5074263;28;20049;-75
2022/12/15 02:16:27;;;;;;;8.30;1.90;;;-1.50;99.90;;;;;;5056576;28;20121;-75
2022/12/15 02:19:17;;;;;;;10.38;3.10;;;-1.40;99.90;;;;;;5074170;28;20504;-75
2022/12/15 02:22:01;;;;;;;9.40;1.60;;;-1.40;99.90;;;;;;5074292;28;20396;-75
2022/12/15 02:24:43;;;;;;;9.90;2.30;;;-1.40;99.90;;;;;;5074694;28;20136;-75
2022/12/15 02:27:12;;;;;;;5.63;1.70;;;-1.30;99.90;;;;;;5074201;28;20041;-82
2022/12/15 02:29:38;;;;;;;7.25;1.40;;;-1.30;99.90;;;;;;5074348;28;20431;-75
2022/12/15 02:32:18;;;;;;;7.07;1.60;;;-1.30;99.90;;;;;;5073366;28;20051;-75
2022/12/15 02:34:51;;;;;;;5.95;1.65;;;-1.30;99.90;;;;;;5056545;28;20090;-76
2022/12/15 02:37:20;;;;;;;4.90;1.35;;;-1.30;99.90;;;;;;5074667;28;20310;-75
2022/12/15 02:39:46;;;;;;;7.00;1.40;;;-1.30;99.90;;;;;;5073894;28;20040;-75
2022/12/15 02:42:12;;;;;;;7.53;1.40;;;-1.30;99.90;;;;;;5056052;28;20129;-76
2022/12/15 02:44:49;;;;;;;7.00;1.52;;;-1.30;99.90;;;;;;5039236;28;20070;-75
2022/12/15 02:47:37;;;;;;;9.00;1.33;;;-1.30;99.90;;;;;;5055874;28;20055;-76
2022/12/15 02:50:22;;;;;;;5.75;1.38;;;-1.30;99.90;;;;;;5056265;28;20090;-75
2022/12/15 02:53:06;;;;;;;7.60;1.58;;;-1.30;99.90;;;;;;5055894;28;20366;-75
2022/12/15 02:56:09;;;;;;;9.95;1.75;;;-1.30;99.90;;;;;;5056744;28;20106;-76
2022/12/15 02:58:59;;;;;;;8.32;1.45;;;-1.30;99.90;;;;;;5074054;28;20358;-76
2022/12/15 03:01:33;;;;;;;7.88;1.20;;;-1.30;99.90;;;;;;5073477;28;20044;-75
2022/12/15 03:04:01;;;;;;;7.82;1.30;;;-1.40;99.90;;;;;;5073597;28;20049;-75
2022/12/15 03:06:27;;;;;;;7.20;1.80;;;-1.40;99.90;;;;;;5055427;28;20078;-76
2022/12/15 03:08:53;;;;;;;11.27;1.50;;;-1.40;99.90;;;;;;5055521;28;20048;-75
2022/12/15 03:11:19;;;;;;;5.83;1.70;;;-1.40;99.90;;;;;;5073348;28;20506;-75
2022/12/15 03:13:45;;;;;;;11.83;1.90;;;-1.30;99.90;;;;;;5055702;28;20037;-75
2022/12/15 03:16:10;;;;;;;8.60;1.70;;;-1.40;99.90;;;;;;5073292;28;20080;-75
2022/12/15 03:18:36;;;;;;;6.53;1.90;;;-1.40;99.90;;;;;;5055549;28;20083;-76
2022/12/15 03:21:02;;;;;;;8.00;2.17;;;-1.40;99.90;;;;;;5073275;28;20044;-75
2022/12/15 03:23:28;;;;;;;9.47;1.97;;;-1.40;99.90;;;;;;5073215;28;20052;-75
2022/12/15 03:25:54;;;;;;;9.30;3.00;;;-1.30;99.90;;;;;;5055453;28;20303;-75
2022/12/15 03:28:20;;;;;;;8.35;2.20;;;-1.30;99.90;;;;;;5074051;28;20054;-75
2022/12/15 03:30:48;;;;;;;6.77;2.03;;;-1.30;99.90;;;;;;5073261;28;20491;-75
2022/12/15 03:33:14;;;;;;;6.82;2.55;;;-1.30;99.90;;;;;;5055386;28;20044;-76
2022/12/15 03:35:39;;;;;;;9.80;1.90;;;-1.30;99.90;;;;;;5039356;28;20052;-75
2022/12/15 03:38:05;;;;;;;9.17;2.00;;;-1.20;99.90;;;;;;5073243;28;20106;-75
2022/12/15 03:40:31;;;;;;;8.80;2.50;;;-1.20;99.90;;;;;;5073437;28;20480;-75
2022/12/15 03:42:57;;;;;;;11.43;2.57;;;-1.20;99.90;;;;;;5076112;28;20446;-75
2022/12/15 03:45:25;;;;;;;12.18;2.83;;;-1.20;99.90;;;;;;5076921;28;20062;-75
2022/12/15 03:47:52;;;;;;;7.40;2.17;;;-1.10;99.90;;;;;;5076970;28;20102;-75
2022/12/15 03:50:21;;;;;;;8.50;2.65;;;-1.20;99.90;;;;;;5059010;28;20472;-83
2022/12/15 03:52:55;;;;;;;9.45;2.45;;;-1.10;99.90;;;;;;5076837;28;20535;-75
2022/12/15 03:55:22;;;;;;;8.32;2.78;;;-1.10;99.90;;;;;;5076860;28;20094;-76
2022/12/15 03:57:48;;;;;;;9.63;2.67;;;-1.20;99.90;;;;;;5076943;28;20399;-75
2022/12/15 04:00:15;;;;;;;8.50;2.50;;;-1.10;99.90;;;;;;5076990;28;20075;-75
2022/12/15 04:02:41;;;;;;;8.52;2.63;;;-1.10;99.90;;;;;;5059065;28;20044;-75
2022/12/15 04:05:11;;;;;;;7.50;2.50;;;-1.20;99.90;;;;;;5042365;28;20045;-75
2022/12/15 04:07:36;;;;;;;10.02;2.63;;;-1.20;99.90;;;;;;5077418;28;20045;-76
2022/12/15 04:10:03;;;;;;;8.40;2.57;;;-1.20;99.90;;;;;;5059198;28;20484;-75
2022/12/15 04:12:28;;;;;;;10.32;2.67;;;-1.20;99.90;;;;;;5058641;28;20514;-76
2022/12/15 04:14:54;;;;;;;11.83;3.20;;;-1.20;99.90;;;;;;5058938;28;20037;-76
2022/12/15 04:17:19;;;;;;;11.60;2.77;;;-1.20;99.90;;;;;;5077589;28;20467;-75
2022/12/15 04:22:29;;;;;;;6.68;2.83;;;-1.20;99.90;;;;;;5076439;28;20062;-75
2022/12/15 05:33:23;;;;;;;9.23;3.33;;;-1.40;99.90;;;;;;5060492;28;20048;-74
2022/12/15 05:35:48;;;;;;;9.30;3.27;;;-1.30;99.90;;;;;;5023650;28;20132;-75
2022/12/15 05:38:14;;;;;;;10.43;3.47;;;-1.30;99.90;;;;;;5074943;28;20052;-78
2022/12/15 05:40:40;;;;;;;7.57;3.63;;;-1.30;99.90;;;;;;5075376;28;20048;-75
2022/12/15 05:43:06;;;;;;;11.45;3.78;;;-1.30;99.90;;;;;;5056899;28;20060;-73
2022/12/15 05:45:32;;;;;;;8.53;3.23;;;-1.30;99.90;;;;;;5057726;28;20045;-75
2022/12/15 05:47:57;;;;;;;9.63;3.43;;;-1.30;99.90;;;;;;5075230;28;20380;-74
2022/12/15 05:50:23;;;;;;;8.43;3.13;;;-1.20;99.90;;;;;;5057744;28;20048;-72
2022/12/15 05:52:49;;;;;;;15.87;3.57;;;-1.20;99.90;;;;;;5074812;28;20056;-71
2022/12/15 05:55:16;;;;;;;7.47;3.25;;;-1.20;99.90;;;;;;5074678;28;20045;-73
2022/12/15 05:57:42;;;;;;;10.20;3.10;;;-1.00;99.90;;;;;;5056934;28;20052;-74
2022/12/15 06:00:08;;;;;;;9.07;3.37;;;-1.10;99.90;;;;;;5056909;28;20075;-74
2022/12/15 06:02:34;;;;;;;9.55;3.20;;;-1.10;99.90;;;;;;5056653;28;20045;-74
2022/12/15 06:04:59;;;;;;;12.27;3.03;;;-1.00;99.90;;;;;;5073621;28;20051;-74
2022/12/15 06:07:25;;;;;;;7.43;2.60;;;-1.00;99.90;;;;;;5074562;28;20041;-74
2022/12/15 06:09:51;;;;;;;9.97;2.77;;;-1.00;99.90;;;;;;5056774;28;20044;-74
2022/12/15 06:12:16;;;;;;;11.43;3.23;;;-1.00;99.90;;;;;;5056790;28;20044;-73
2022/12/15 06:14:42;;;;;;;13.33;3.40;;;-1.00;99.90;;;;;;5074650;28;20380;-74
2022/12/15 06:17:08;;;;;;;8.50;3.47;;;-0.90;99.90;;;;;;5039692;28;20071;-74
2022/12/15 06:19:33;;;;;;;8.43;3.67;;;-1.00;99.90;;;;;;5056529;28;20048;-74
2022/12/15 06:21:59;;;;;;;13.77;5.33;;;-0.90;99.90;;;;;;5023565;28;20100;-74
2022/12/15 06:24:25;;;;;;;9.33;3.60;;;-1.00;99.90;;;;;;5055944;28;20461;-74
2022/12/15 06:26:51;;;;;;;12.47;4.03;;;-1.00;99.90;;;;;;5074060;28;20078;-74
2022/12/15 06:29:17;;;;;;;11.67;4.37;;;-1.00;99.90;;;;;;5056443;28;20385;-74
2022/12/15 06:31:43;;;;;;;10.82;5.07;;;-1.00;99.90;;;;;;5073927;28;20089;-74
2022/12/15 06:34:13;;;;;;;15.63;5.47;;;-1.00;99.90;;;;;;5056706;28;20489;-74
2022/12/15 06:36:39;;;;;;;14.50;5.90;;;-1.00;99.90;;;;;;5073682;28;20333;-74
2022/12/15 06:39:08;;;;;;;14.05;6.85;;;-1.00;99.90;;;;;;5073750;28;20189;-74
2022/12/15 06:41:34;;;;;;;16.80;7.60;;;-1.00;99.90;;;;;;5073393;28;20412;-74
2022/12/15 06:44:00;;;;;;;19.98;8.02;;;-1.00;99.90;;;;;;5074030;28;20118;-74
2022/12/15 06:46:28;;;;;;;18.10;7.95;;;-1.00;99.90;;;;;;5073519;28;20047;-74
2022/12/15 06:48:53;;;;;;;18.55;8.82;;;-1.00;99.90;;;;;;5073515;28;20124;-74
2022/12/15 06:51:20;;;;;;;13.67;7.93;;;-1.00;99.90;;;;;;5056677;28;20456;-74
2022/12/15 06:53:49;;;;;;;14.88;8.35;;;-1.00;99.90;;;;;;5073649;28;20044;-74
2022/12/15 06:56:19;;;;;;;15.88;8.50;;;-1.00;99.90;;;;;;5073608;28;20045;-74
2022/12/15 06:58:47;;;;;;;16.50;8.10;;;-1.00;99.90;;;;;;5073573;28;20052;-74
2022/12/15 07:01:14;;;;;;;12.43;7.63;;;-1.00;99.90;;;;;;5073589;28;20048;-74
2022/12/15 07:03:40;;;;;;;14.60;8.25;;;-1.10;99.90;;;;;;5074322;28;20044;-74
2022/12/15 07:06:09;;;;;;;14.88;8.32;;;-1.10;99.90;;;;;;5073448;28;20037;-74
2022/12/15 07:08:35;;;;;;;14.57;8.93;;;-1.00;99.90;;;;;;5055786;28;20051;-74
2022/12/15 07:11:05;;;;;;;14.63;8.38;;;-1.00;99.90;;;;;;5073467;28;20048;-74
2022/12/15 07:13:31;;;;;;;14.60;7.88;;;-1.00;99.90;;;;;;5056139;28;20049;-74
2022/12/15 07:16:01;;;;;;;15.23;8.33;;;-1.00;99.90;;;;;;5055640;28;20055;-74
2022/12/15 07:18:28;;;;;;;12.05;7.97;;;-1.00;99.90;;;;;;5073265;28;20080;-73
2022/12/15 07:20:54;;;;;;;16.23;7.97;;;-0.90;99.90;;;;;;5073363;28;20088;-74
2022/12/15 07:23:20;;;;;;;16.90;7.03;;;-0.90;99.90;;;;;;5074135;28;20044;-73
2022/12/15 07:25:46;;;;;;;13.60;6.70;;;-0.90;99.90;;;;;;5073233;28;20465;-74
2022/12/15 07:28:12;;;;;;;13.70;6.30;;;-0.90;99.90;;;;;;5055519;28;20053;-74
2022/12/15 07:30:38;;;;;;;12.23;6.97;;;-0.90;99.90;;;;;;5055599;28;20048;-74
2022/12/15 07:33:04;;;;;;;12.23;5.97;;;-0.80;99.90;;;;;;5073379;28;20443;-74
2022/12/15 07:35:30;;;;;;;12.75;6.57;;;-0.70;99.90;;;;;;5073028;28;20063;-73
2022/12/15 07:37:56;;;;;;;12.40;6.67;;;-0.70;99.90;;;;;;5074035;28;20396;-74
2022/12/15 07:40:22;;;;;;;15.87;6.40;;;-0.70;99.90;;;;;;5073098;28;20476;-74
2022/12/15 07:42:47;;;;;;;17.38;7.30;;;-0.60;99.90;;;;;;5073155;28;20045;-74
2022/12/15 07:45:13;;;;;;;13.07;6.27;;;-0.60;99.90;;;;;;5073032;28;20051;-74
2022/12/15 07:47:39;;;;;;;10.60;6.57;;;-0.70;99.90;;;;;;5055677;28;20091;-74
2022/12/15 07:50:06;;;;;;;15.38;6.38;;;-0.70;99.90;;;;;;5039191;28;20052;-74
2022/12/15 07:52:32;;;;;;;13.55;7.40;;;-0.60;99.90;;;;;;5055414;28;20086;-74
2022/12/15 07:54:57;;;;;;;11.53;6.67;;;-0.60;99.90;;;;;;5073263;28;20040;-74
2022/12/15 07:57:23;;;;;;;16.03;7.13;;;-0.60;99.90;;;;;;5073011;28;20079;-74
2022/12/15 07:59:50;;;;;;;11.13;6.50;;;-0.50;99.90;;;;;;5072989;28;20049;-74
2022/12/15 08:02:16;;;;;;;11.85;7.35;;;-0.50;99.90;;;;;;5055167;28;20048;-74
2022/12/15 08:04:42;;;;;;;14.18;7.63;;;-0.50;99.90;;;;;;5072833;28;20047;-74
2022/12/15 08:07:09;;;;;;;15.57;7.77;;;-0.50;99.90;;;;;;5072829;28;20040;-74
2022/12/15 08:09:35;;;;;;;15.10;7.82;;;-0.50;99.90;;;;;;5055032;28;20055;-74
2022/12/15 08:12:01;;;;;;;18.52;8.40;;;-0.40;99.90;;;;;;5072895;28;20195;-74
2022/12/15 08:14:28;;;;;;;18.07;8.20;;;-0.40;99.90;;;;;;5038418;28;20178;-74
2022/12/15 08:16:53;;;;;;;18.30;8.75;;;-0.30;99.90;;;;;;5073441;28;20057;-74
2022/12/15 08:19:20;;;;;;;15.87;8.20;;;-0.20;99.90;;;;;;5073121;28;20060;-74
2022/12/15 08:21:46;;;;;;;17.63;8.57;;;-0.20;99.90;;;;;;5072835;28;20044;-74
2022/12/15 08:24:13;;;;;;;14.45;7.95;;;-0.20;99.90;;;;;;5072767;28;20095;-74
2022/12/15 08:26:40;;;;;;;14.85;7.82;;;-0.20;99.90;;;;;;5072712;28;20048;-74
2022/12/15 08:29:10;;;;;;;13.40;7.93;;;-0.10;99.90;;;;;;5074632;28;20048;-74
2022/12/15 08:31:36;;;;;;;18.50;8.80;;;-0.10;99.90;;;;;;5058657;28;20051;-74
2022/12/15 08:34:03;;;;;;;13.30;8.10;;;-0.10;99.90;;;;;;5076712;28;20048;-74
2022/12/15 08:36:29;;;;;;;17.00;8.23;;;-0.10;99.90;;;;;;5058008;28;20053;-74
2022/12/15 08:38:56;;;;;;;19.67;8.95;;;-0.10;99.90;;;;;;5076084;28;20473;-74
2022/12/15 08:41:25;;;;;;;15.32;8.20;;;0.00;99.90;;;;;;5076086;28;20055;-74
2022/12/15 08:43:51;;;;;;;16.77;8.68;;;0.10;99.90;;;;;;5075982;28;20051;-75
2022/12/15 08:46:18;;;;;;;17.67;8.35;;;0.10;99.90;;;;;;5075893;28;20361;-74
2022/12/15 08:48:45;;;;;;;18.75;7.55;;;0.20;99.90;;;;;;5076428;28;20051;-74
2022/12/15 08:51:11;;;;;;;18.42;8.13;;;0.20;99.90;;;;;;5058175;28;20052;-74
2022/12/15 08:53:37;;;;;;;13.45;7.60;;;0.30;99.90;;;;;;5075785;28;20499;-74
2022/12/15 08:56:12;;;;;;;13.65;8.15;;;0.30;99.90;;;;;;5058398;28;20048;-74
2022/12/15 08:58:39;;;;;;;15.02;7.68;;;0.40;99.90;;;;;;5075773;28;20167;-74
2022/12/15 09:01:07;;;;;;;15.27;7.60;;;0.30;99.90;;;;;;5076012;28;20044;-74
2022/12/15 09:03:34;;;;;;;13.27;7.47;;;0.30;99.90;;;;;;5058532;28;20396;-74
2022/12/15 09:06:12;;;;;;;17.38;7.43;;;0.30;99.90;;;;;;5075778;28;20366;-74
2022/12/15 09:08:37;;;;;;;19.77;8.10;;;0.30;99.90;;;;;;5058000;28;20127;-74
2022/12/15 09:11:04;;;;;;;14.27;6.90;;;0.40;99.90;;;;;;5075762;28;20540;-74
2022/12/15 09:13:30;;;;;;;19.83;7.35;;;0.30;99.90;;;;;;5075476;28;20048;-74
2022/12/15 09:16:05;;;;;;;15.60;7.10;;;0.30;99.90;;;;;;5075942;28;20044;-74
2022/12/15 09:18:32;;;;;;;18.25;6.88;;;0.30;99.90;;;;;;5075392;28;20049;-74
2022/12/15 09:21:03;;;;;;;17.92;8.20;;;0.40;99.90;;;;;;5076154;28;20071;-74
2022/12/15 09:23:29;;;;;;;23.08;8.43;;;0.40;99.90;;;;;;5076089;28;20048;-74
2022/12/15 09:26:14;;;;;;;21.63;8.80;;;0.40;99.90;;;;;;5075331;28;20090;-74
2022/12/15 09:28:41;;;;;;;18.08;8.00;;;0.40;99.90;;;;;;5075550;28;20447;-74
2022/12/15 09:31:12;;;;;;;14.13;7.75;;;0.40;99.90;;;;;;5057227;28;20123;-74
2022/12/15 09:33:39;;;;;;;17.95;8.90;;;0.40;99.90;;;;;;5074756;28;20454;-74
2022/12/15 09:36:07;;;;;;;16.83;9.10;;;0.40;99.90;;;;;;5040399;28;20056;-74
2022/12/15 09:38:34;;;;;;;18.20;9.38;;;0.40;99.90;;;;;;5075222;28;20459;-74
2022/12/15 09:41:22;;;;;;;19.50;9.23;;;0.40;99.90;;;;;;5075262;28;20382;-74
2022/12/15 09:44:02;;;;;;;17.65;10.25;;;0.40;99.90;;;;;;5057600;28;20055;-74
2022/12/15 09:46:46;;;;;;;16.38;9.60;;;0.40;99.90;;;;;;5056939;28;20040;-74
2022/12/15 09:49:53;;;;;;;17.40;10.02;;;0.40;99.90;;;;;;5057539;28;20079;-74
2022/12/15 09:52:29;;;;;;;14.80;9.60;;;0.40;99.90;;;;;;5075337;28;20087;-74
2022/12/15 09:54:57;;;;;;;17.83;9.75;;;0.40;99.90;;;;;;5042350;28;20385;-74
2022/12/15 09:57:32;;;;;;;17.45;9.25;;;0.50;99.90;;;;;;5074600;28;20051;-74
2022/12/15 10:00:20;;;;;;;17.20;10.10;;;0.50;99.90;;;;;;5058147;28;20054;-74
2022/12/15 10:03:23;;;;;;;17.63;9.43;;;0.60;99.90;;;;;;5074759;28;20125;-74
2022/12/15 10:06:10;;;;;;;18.65;8.95;;;0.60;99.90;;;;;;5075206;28;20044;-74
2022/12/15 10:08:40;;;;;;;17.67;10.43;;;0.60;99.90;;;;;;5057308;28;20431;-73
2022/12/15 10:11:24;;;;;;;15.73;9.02;;;0.60;99.90;;;;;;5074359;28;20083;-74
2022/12/15 10:14:05;;;;;;;12.63;7.80;;;0.60;99.90;;;;;;5074897;28;20049;-73
2022/12/15 10:16:56;;;;;;;16.13;8.52;;;0.70;99.90;;;;;;5056736;28;20036;-74
2022/12/15 10:19:36;;;;;;;16.95;8.48;;;0.60;99.90;;;;;;5056400;28;20110;-73
2022/12/15 10:22:02;;;;;;;18.30;9.23;;;0.60;99.90;;;;;;5056286;28;20090;-74
2022/12/15 10:24:30;;;;;;;19.77;9.10;;;0.60;99.90;;;;;;5074681;28;20080;-73
2022/12/15 10:27:22;;;;;;;21.77;9.73;;;0.70;99.90;;;;;;5074001;28;20051;-73
2022/12/15 10:30:08;;;;;;;19.02;9.50;;;0.70;99.90;;;;;;5074930;28;20052;-73
2022/12/15 10:32:55;;;;;;;14.45;8.82;;;0.70;99.90;;;;;;5073999;28;20500;-73
2022/12/15 10:35:26;;;;;;;15.23;8.52;;;0.80;99.90;;;;;;5073727;28;20144;-73
2022/12/15 10:37:56;;;;;;;15.75;8.73;;;0.80;99.90;;;;;;5056360;28;20496;-73
2022/12/15 10:40:43;;;;;;;16.60;9.55;;;0.80;99.90;;;;;;5073860;28;20041;-73
2022/12/15 10:43:23;;;;;;;21.63;8.35;;;0.90;99.90;;;;;;5074354;28;20060;-73
2022/12/15 10:45:58;;;;;;;20.55;11.48;;;1.00;99.90;;;;;;5055950;28;20032;-73
2022/12/15 10:48:24;;;;;;;17.30;9.73;;;1.00;99.90;;;;;;5074039;28;20090;-73
2022/12/15 10:50:49;;;;;;;17.67;9.17;;;1.10;99.90;;;;;;5073700;28;20480;-73
2022/12/15 10:53:41;;;;;;;18.37;9.73;;;1.10;99.90;;;;;;5073802;28;20049;-73
2022/12/15 10:56:08;;;;;;;16.10;9.15;;;1.30;99.90;;;;;;5073560;28;20044;-73
2022/12/15 10:58:46;;;;;;;18.50;8.70;;;1.30;99.90;;;;;;5039242;28;20056;-73
2022/12/15 11:01:18;;;;;;;21.02;8.68;;;1.40;99.90;;;;;;5074003;28;20043;-73
2022/12/15 11:03:45;;;;;;;15.35;8.32;;;1.30;99.90;;;;;;5073420;28;20055;-73
2022/12/15 11:06:17;;;;;;;18.90;7.57;;;1.30;99.90;;;;;;5055413;28;20044;-73
2022/12/15 11:08:43;;;;;;;17.08;8.65;;;1.30;99.90;;;;;;5056229;28;20519;-73
2022/12/15 11:14:41;;;;;;;18.92;9.07;;;1.30;99.90;;;;;;5073524;28;20063;-73
2022/12/15 11:17:06;;;;;;;15.40;8.15;;;1.30;99.90;;;;;;5073907;28;20381;-73
2022/12/15 11:19:47;;;;;;;16.53;8.20;;;1.30;99.90;;;;;;5055656;28;20158;-73
2022/12/15 11:22:22;;;;;;;18.65;7.90;;;1.30;99.90;;;;;;5073808;28;20053;-73
2022/12/15 11:24:57;;;;;;;20.40;8.50;;;1.30;99.90;;;;;;5073274;28;20532;-73
2022/12/15 11:27:34;;;;;;;19.38;6.03;;;1.40;99.90;;;;;;5073553;28;20056;-73
2022/12/15 11:30:04;;;;;;;21.02;7.80;;;1.30;99.90;;;;;;5073185;28;20048;-73
2022/12/15 11:32:34;;;;;;;13.82;7.40;;;1.30;99.90;;;;;;5073160;28;20372;-73
2022/12/15 11:35:00;;;;;;;16.55;6.90;;;1.40;99.90;;;;;;5072881;28;20150;-73
2022/12/15 11:37:41;;;;;;;14.45;7.60;;;1.40;99.90;;;;;;5073128;28;20056;-73
2022/12/15 11:40:24;;;;;;;14.23;7.32;;;1.40;99.90;;;;;;5073698;28;20044;-73
2022/12/15 11:43:09;;;;;;;20.77;7.97;;;1.40;99.90;;;;;;5073408;28;20102;-73
2022/12/15 11:46:00;;;;;;;13.82;7.65;;;1.40;99.90;;;;;;5072985;28;20048;-73
2022/12/15 11:48:39;;;;;;;13.90;7.65;;;1.50;99.90;;;;;;5073551;28;20098;-73
2022/12/15 11:51:10;;;;;;;16.83;8.13;;;1.50;99.90;;;;;;5072968;28;20055;-73
2022/12/15 11:53:48;;;;;;;14.35;7.72;;;1.60;99.90;;;;;;5038929;28;20052;-73
2022/12/15 11:56:42;;;;;;;18.40;8.48;;;1.60;99.90;;;;;;5073782;28;20435;-73
2022/12/15 11:59:28;;;;;;;17.63;8.95;;;1.60;99.90;;;;;;5056104;28;20053;-73
2022/12/15 12:02:06;;;;;;;;;;;1.60;99.90;;;;;;5074193;28;20075;-73
2022/12/15 12:05:07;;;;;;;20.48;8.40;;;1.60;99.90;;;;;;5075076;28;19924;-73
2022/12/15 12:07:35;;;;;;;17.63;8.15;;;1.70;99.90;;;;;;5059295;28;20095;-73
2022/12/15 12:10:38;;;;;;;17.13;8.75;;;1.60;99.90;;;;;;5076820;28;20396;-73
2022/12/15 12:13:27;;;;;;;16.23;7.82;;;1.60;99.90;;;;;;5076538;28;20048;-73
2022/12/15 12:16:11;;;;;;;13.75;7.55;;;1.70;99.90;;;;;;5059684;28;20052;-73
2022/12/15 12:19:17;;;;;;;14.52;6.90;;;1.70;99.90;;;;;;5058554;28;20106;-73
2022/12/15 12:21:44;;;;;;;14.45;6.97;;;1.70;99.90;;;;;;4978459;28;20506;-73
2022/12/15 12:24:22;;;;;;;18.15;7.38;;;1.70;99.90;;;;;;5076569;28;20053;-73
2022/12/15 12:27:00;;;;;;;13.15;6.75;;;1.70;99.90;;;;;;5076159;28;20048;-73
2022/12/15 12:29:29;;;;;;;17.70;6.97;;;1.70;99.90;;;;;;5076965;28;20133;-73
2022/12/15 12:32:00;;;;;;;20.60;7.35;;;1.70;99.90;;;;;;5076907;28;20044;-73
2022/12/15 12:34:47;;;;;;;18.98;8.18;;;1.70;99.90;;;;;;5058417;28;20055;-74
2022/12/15 12:37:35;;;;;;;17.35;7.43;;;1.80;99.90;;;;;;5058150;28;20401;-73
2022/12/15 12:40:13;;;;;;;15.70;7.75;;;1.80;99.90;;;;;;5076594;28;20052;-73
2022/12/15 12:42:48;;;;;;;17.20;7.32;;;1.80;99.90;;;;;;5076560;28;20102;-74
2022/12/15 12:45:14;;;;;;;17.92;7.70;;;1.80;99.90;;;;;;5058219;28;20056;-73
2022/12/15 12:47:48;;;;;;;15.93;8.18;;;1.80;99.90;;;;;;5076373;28;20040;-74
2022/12/15 12:50:19;;;;;;;11.60;5.63;;;1.80;99.90;;;;;;5058956;28;20128;-74
2022/12/15 12:53:01;;;;;;;18.63;8.18;;;1.90;99.90;;;;;;5075897;28;20048;-73
2022/12/15 12:55:41;;;;;;;13.80;7.55;;;1.80;99.90;;;;;;5075735;28;20124;-74
2022/12/15 12:58:30;;;;;;;15.93;7.45;;;1.80;99.90;;;;;;5057794;28;20052;-74
2022/12/15 13:01:18;;;;;;;19.65;7.68;;;1.90;99.90;;;;;;5075605;28;20057;-74
2022/12/15 13:03:45;;;;;;;15.93;7.28;;;1.90;99.90;;;;;;5076143;28;20041;-74
2022/12/15 13:06:40;;;;;;;15.88;7.22;;;1.90;99.90;;;;;;5075402;28;20063;-73
2022/12/15 13:09:41;;;;;;;18.13;8.02;;;2.00;99.90;;;;;;4970805;28;20199;-74
2022/12/15 13:12:45;;;;;;;14.85;6.68;;;2.10;99.90;;;;;;5019530;28;20384;-74
2022/12/15 13:15:45;;;;;;;20.52;7.00;;;2.10;99.90;;;;;;5057425;28;20091;-74
2022/12/15 13:18:22;;;;;;;15.52;6.43;;;2.20;99.90;;;;;;5075346;28;20047;-74
2022/12/15 13:20:52;;;;;;;11.43;5.93;;;2.20;99.90;;;;;;5076056;28;20145;-74
2022/12/15 13:23:21;;;;;;;10.48;5.43;;;2.20;99.90;;;;;;5057875;28;20396;-73
2022/12/15 13:25:52;;;;;;;11.68;5.65;;;2.20;99.90;;;;;;5057617;28;20128;-74
2022/12/15 13:28:29;;;;;;;13.40;6.10;;;2.20;99.90;;;;;;5057875;28;20041;-74
2022/12/15 13:31:20;;;;;;;11.35;5.80;;;2.10;99.90;;;;;;5075059;28;20044;-74
2022/12/15 13:33:48;;;;;;;10.73;5.43;;;2.10;99.90;;;;;;5074887;28;20079;-74
2022/12/15 13:36:35;;;;;;;18.00;5.75;;;2.10;99.90;;;;;;5075145;28;20113;-74
2022/12/15 13:39:12;;;;;;;12.90;5.88;;;2.00;99.90;;;;;;5074832;28;20500;-74
2022/12/15 13:41:43;;;;;;;13.90;6.10;;;2.00;99.90;;;;;;5074878;28;20053;-74
2022/12/15 13:44:22;;;;;;;16.75;7.30;;;2.00;99.90;;;;;;5075044;28;20468;-74
2022/12/15 13:46:50;;;;;;;19.30;7.07;;;2.00;99.90;;;;;;5074678;28;20036;-74
2022/12/15 13:49:27;;;;;;;20.92;11.40;;;2.00;99.90;;;;;;5074493;28;20464;-74
2022/12/15 13:52:01;;;;;;;14.65;7.57;;;2.00;99.90;;;;;;5074830;28;20114;-74
2022/12/15 13:54:35;;;;;;;14.63;7.18;;;2.00;99.90;;;;;;5075099;28;20052;-74
2022/12/15 13:57:10;;;;;;;19.73;10.57;;;1.90;99.90;;;;;;5075018;28;20045;-74
2022/12/15 13:59:41;;;;;;;18.75;11.43;;;1.90;99.90;;;;;;5040477;28;20044;-74
2022/12/15 14:02:31;;;;;;;21.30;9.95;;;1.90;99.90;;;;;;5056805;28;20091;-74
2022/12/15 14:05:13;;;;;;;19.50;10.00;;;1.90;99.90;;;;;;5074352;28;20044;-74
2022/12/15 14:07:45;;;;;;;17.17;8.90;;;1.90;99.90;;;;;;5074837;28;20049;-74
2022/12/15 14:10:26;;;;;;;18.88;8.80;;;1.90;99.90;;;;;;5074623;28;20370;-74
2022/12/15 14:12:55;;;;;;;18.85;8.45;;;1.90;99.90;;;;;;5074538;28;20052;-74
2022/12/15 14:15:29;;;;;;;20.63;7.75;;;2.00;99.90;;;;;;5074085;28;20041;-74
2022/12/15 14:17:56;;;;;;;12.35;6.45;;;1.90;99.90;;;;;;5056131;28;20049;-74
2022/12/15 14:20:37;;;;;;;19.05;7.72;;;1.90;99.90;;;;;;5056141;28;20051;-74
2022/12/15 14:23:17;;;;;;;15.77;7.40;;;1.90;99.90;;;;;;5074780;28;20045;-74
2022/12/15 14:26:04;;;;;;;14.52;7.10;;;1.90;99.90;;;;;;5073509;28;20048;-74
2022/12/15 14:28:33;;;;;;;18.42;7.63;;;1.90;99.90;;;;;;5073838;28;20135;-74
2022/12/15 14:31:10;;;;;;;16.10;8.93;;;1.90;99.90;;;;;;5073881;28;20113;-74
2022/12/15 14:33:39;;;;;;;15.73;8.10;;;1.90;99.90;;;;;;5056445;28;20063;-74
2022/12/15 14:36:09;;;;;;;16.10;8.85;;;2.00;99.90;;;;;;5055638;28;20052;-74
2022/12/15 14:38:43;;;;;;;19.42;8.40;;;1.90;99.90;;;;;;5056756;28;20431;-74
2022/12/15 14:41:25;;;;;;;13.68;6.90;;;1.90;99.90;;;;;;5056107;28;20056;-74
2022/12/15 14:43:56;;;;;;;16.40;8.20;;;1.90;99.90;;;;;;5073655;28;20048;-74
2022/12/15 14:46:26;;;;;;;18.98;7.57;;;1.90;99.90;;;;;;5073845;28;20071;-73
2022/12/15 14:48:57;;;;;;;19.30;8.68;;;1.90;99.90;;;;;;5074071;28;20057;-73
2022/12/15 14:51:25;;;;;;;16.48;8.75;;;1.90;99.90;;;;;;5055763;28;20044;-73
2022/12/15 14:53:52;;;;;;;13.43;7.78;;;1.90;99.90;;;;;;5055903;28;20127;-74
2022/12/15 14:56:31;;;;;;;15.70;7.35;;;1.90;99.90;;;;;;5073138;28;20461;-74
2022/12/15 14:58:58;;;;;;;17.63;8.27;;;1.90;99.90;;;;;;5056509;28;20048;-74
2022/12/15 15:01:40;;;;;;;19.25;7.97;;;1.80;99.90;;;;;;5073395;28;20045;-73
2022/12/15 15:04:25;;;;;;;13.68;7.10;;;1.90;99.90;;;;;;5073093;28;20569;-73
2022/12/15 15:07:03;;;;;;;14.02;6.82;;;1.80;99.90;;;;;;5073329;28;20529;-73
2022/12/15 15:09:31;;;;;;;13.48;6.35;;;1.80;99.90;;;;;;5073393;28;20052;-74
2022/12/15 15:12:06;;;;;;;14.38;6.55;;;1.70;99.90;;;;;;5073997;28;20063;-73
2022/12/15 15:14:38;;;;;;;20.33;6.78;;;1.70;99.90;;;;;;5055564;28;20053;-73
2022/12/15 15:17:15;;;;;;;16.75;7.30;;;1.60;99.90;;;;;;5074095;28;20120;-73
2022/12/15 15:19:49;;;;;;;19.05;7.47;;;1.60;99.90;;;;;;5073564;28;20482;-73
2022/12/15 15:22:30;;;;;;;19.80;7.60;;;1.60;99.90;;;;;;5055530;28;20492;-73
2022/12/15 15:24:55;;;;;;;15.73;7.32;;;1.60;99.90;;;;;;5073671;28;20396;-73
2022/12/15 15:27:37;;;;;;;19.47;7.53;;;1.50;99.90;;;;;;5055191;28;20045;-73
2022/12/15 15:30:22;;;;;;;13.82;7.18;;;1.60;99.90;;;;;;5073694;28;20050;-73
2022/12/15 15:32:54;;;;;;;19.50;7.70;;;1.60;99.90;;;;;;5055161;28;20048;-74
2022/12/15 15:35:21;;;;;;;14.38;8.15;;;1.60;99.90;;;;;;5072956;28;20044;-73